sensor_id;sensor_type;location;lat;lon;timestamp;P1;durP1;ratioP1;P2;durP2;ratioP2
61413;SDS011;47279;52.426;10.488;2023-09-19T00:00:41;1.75;;;1.35;;
61413;SDS011;47279;52.426;10.488;2023-09-19T00:03:08;1.73;;;1.40;;
61413;SDS011;47279;52.426;10.488;2023-09-19T00:05:34;1.52;;;1.42;;
61413;SDS011;47279;52.426;10.488;2023-09-19T00:08:01;1.50;;;1.40;;
61413;SDS011;47279;52.426;10.488;2023-09-19T00:10:30;1.40;;;1.30;;
61413;SDS011;47279;52.426;10.488;2023-09-19T00:12:56;1.58;;;1.48;;
61413;SDS011;47279;52.426;10.488;2023-09-19T00:15:24;1.58;;;1.30;;
61413;SDS011;47279;52.426;10.488;2023-09-19T00:17:51;1.30;;;1.20;;
61413;SDS011;47279;52.426;10.488;2023-09-19T00:22:47;1.30;;;1.20;;
61413;SDS011;47279;52.426;10.488;2023-09-19T00:25:14;1.15;;;1.15;;
61413;SDS011;47279;52.426;10.488;2023-09-19T00:27:40;1.90;;;1.80;;
61413;SDS011;47279;52.426;10.488;2023-09-19T00:30:07;1.50;;;1.40;;
61413;SDS011;47279;52.426;10.488;2023-09-19T00:32:39;1.60;;;1.50;;
61413;SDS011;47279;52.426;10.488;2023-09-19T00:35:05;1.60;;;1.40;;
61413;SDS011;47279;52.426;10.488;2023-09-19T00:37:31;1.38;;;1.27;;
61413;SDS011;47279;52.426;10.488;2023-09-19T00:39:57;1.40;;;1.30;;
61413;SDS011;47279;52.426;10.488;2023-09-19T00:42:23;1.27;;;1.17;;
61413;SDS011;47279;52.426;10.488;2023-09-19T00:44:50;1.38;;;1.27;;
61413;SDS011;47279;52.426;10.488;2023-09-19T00:47:17;1.70;;;1.17;;
61413;SDS011;47279;52.426;10.488;2023-09-19T00:49:44;1.33;;;1.20;;
61413;SDS011;47279;52.426;10.488;2023-09-19T00:52:14;1.70;;;1.40;;
61413;SDS011;47279;52.426;10.488;2023-09-19T00:54:40;1.40;;;1.30;;
61413;SDS011;47279;52.426;10.488;2023-09-19T00:57:06;1.52;;;1.42;;
61413;SDS011;47279;52.426;10.488;2023-09-19T00:59:33;1.33;;;1.23;;
61413;SDS011;47279;52.426;10.488;2023-09-19T01:02:00;1.30;;;1.20;;
61413;SDS011;47279;52.426;10.488;2023-09-19T01:04:26;1.10;;;1.00;;
61413;SDS011;47279;52.426;10.488;2023-09-19T01:06:52;1.50;;;1.40;;
61413;SDS011;47279;52.426;10.488;2023-09-19T01:09:19;1.98;;;1.58;;
61413;SDS011;47279;52.426;10.488;2023-09-19T01:11:46;1.42;;;1.33;;
61413;SDS011;47279;52.426;10.488;2023-09-19T01:16:59;1.70;;;1.60;;
61413;SDS011;47279;52.426;10.488;2023-09-19T01:19:42;1.40;;;1.30;;
61413;SDS011;47279;52.426;10.488;2023-09-19T01:22:42;1.27;;;1.17;;
61413;SDS011;47279;52.426;10.488;2023-09-19T01:28:20;1.40;;;1.30;;
61413;SDS011;47279;52.426;10.488;2023-09-19T01:30:51;1.58;;;1.17;;
61413;SDS011;47279;52.426;10.488;2023-09-19T01:33:19;1.10;;;1.10;;
61413;SDS011;47279;52.426;10.488;2023-09-19T01:35:45;1.20;;;1.10;;
61413;SDS011;47279;52.426;10.488;2023-09-19T01:38:11;1.30;;;1.20;;
61413;SDS011;47279;52.426;10.488;2023-09-19T01:40:40;1.30;;;1.20;;
61413;SDS011;47279;52.426;10.488;2023-09-19T01:43:26;1.27;;;1.17;;
61413;SDS011;47279;52.426;10.488;2023-09-19T01:46:02;1.30;;;1.20;;
61413;SDS011;47279;52.426;10.488;2023-09-19T01:51:20;1.35;;;1.25;;
61413;SDS011;47279;52.426;10.488;2023-09-19T01:53:55;1.25;;;1.15;;
61413;SDS011;47279;52.426;10.488;2023-09-19T01:58:53;1.33;;;1.23;;
61413;SDS011;47279;52.426;10.488;2023-09-19T02:01:22;1.30;;;1.20;;
61413;SDS011;47279;52.426;10.488;2023-09-19T02:03:48;1.08;;;1.00;;
61413;SDS011;47279;52.426;10.488;2023-09-19T02:06:15;1.42;;;1.20;;
61413;SDS011;47279;52.426;10.488;2023-09-19T02:08:42;1.50;;;1.40;;
61413;SDS011;47279;52.426;10.488;2023-09-19T02:11:09;1.35;;;1.25;;
61413;SDS011;47279;52.426;10.488;2023-09-19T02:13:35;1.52;;;1.35;;
61413;SDS011;47279;52.426;10.488;2023-09-19T02:16:02;1.30;;;1.20;;
61413;SDS011;47279;52.426;10.488;2023-09-19T02:18:29;1.20;;;1.10;;
61413;SDS011;47279;52.426;10.488;2023-09-19T02:20:55;1.50;;;1.40;;
61413;SDS011;47279;52.426;10.488;2023-09-19T02:23:22;1.40;;;1.30;;
61413;SDS011;47279;52.426;10.488;2023-09-19T02:25:52;1.27;;;1.15;;
61413;SDS011;47279;52.426;10.488;2023-09-19T02:28:18;1.50;;;1.17;;
61413;SDS011;47279;52.426;10.488;2023-09-19T02:30:47;1.52;;;1.30;;
61413;SDS011;47279;52.426;10.488;2023-09-19T02:33:13;1.38;;;1.27;;
61413;SDS011;47279;52.426;10.488;2023-09-19T02:35:39;1.10;;;1.00;;
61413;SDS011;47279;52.426;10.488;2023-09-19T02:38:05;1.30;;;1.20;;
61413;SDS011;47279;52.426;10.488;2023-09-19T02:40:37;1.13;;;1.02;;
61413;SDS011;47279;52.426;10.488;2023-09-19T02:43:03;1.17;;;1.08;;
61413;SDS011;47279;52.426;10.488;2023-09-19T02:45:29;1.25;;;1.15;;
61413;SDS011;47279;52.426;10.488;2023-09-19T02:47:55;1.88;;;1.20;;
61413;SDS011;47279;52.426;10.488;2023-09-19T02:50:22;1.20;;;1.10;;
61413;SDS011;47279;52.426;10.488;2023-09-19T02:52:48;1.30;;;1.20;;
61413;SDS011;47279;52.426;10.488;2023-09-19T02:55:15;1.40;;;1.30;;
61413;SDS011;47279;52.426;10.488;2023-09-19T02:57:44;1.30;;;1.20;;
61413;SDS011;47279;52.426;10.488;2023-09-19T03:00:11;1.25;;;1.00;;
61413;SDS011;47279;52.426;10.488;2023-09-19T03:02:37;1.80;;;1.40;;
61413;SDS011;47279;52.426;10.488;2023-09-19T03:05:05;1.40;;;1.30;;
61413;SDS011;47279;52.426;10.488;2023-09-19T03:07:31;1.30;;;1.20;;
61413;SDS011;47279;52.426;10.488;2023-09-19T03:09:57;1.40;;;1.30;;
61413;SDS011;47279;52.426;10.488;2023-09-19T03:12:23;1.40;;;1.10;;
61413;SDS011;47279;52.426;10.488;2023-09-19T03:14:49;1.30;;;1.20;;
61413;SDS011;47279;52.426;10.488;2023-09-19T03:17:15;1.35;;;1.20;;
61413;SDS011;47279;52.426;10.488;2023-09-19T03:19:41;1.23;;;1.13;;
61413;SDS011;47279;52.426;10.488;2023-09-19T03:22:07;1.80;;;1.40;;
61413;SDS011;47279;52.426;10.488;2023-09-19T03:24:33;1.33;;;1.23;;
61413;SDS011;47279;52.426;10.488;2023-09-19T03:27:01;1.40;;;1.30;;
61413;SDS011;47279;52.426;10.488;2023-09-19T03:29:28;1.52;;;1.10;;
61413;SDS011;47279;52.426;10.488;2023-09-19T03:31:53;1.73;;;1.50;;
61413;SDS011;47279;52.426;10.488;2023-09-19T03:34:19;1.52;;;1.42;;
61413;SDS011;47279;52.426;10.488;2023-09-19T03:36:46;1.40;;;1.30;;
61413;SDS011;47279;52.426;10.488;2023-09-19T03:39:12;1.10;;;1.05;;
61413;SDS011;47279;52.426;10.488;2023-09-19T03:41:40;1.20;;;1.10;;
61413;SDS011;47279;52.426;10.488;2023-09-19T03:44:06;1.50;;;1.40;;
61413;SDS011;47279;52.426;10.488;2023-09-19T03:46:32;1.25;;;1.15;;
61413;SDS011;47279;52.426;10.488;2023-09-19T03:49:00;1.40;;;1.30;;
61413;SDS011;47279;52.426;10.488;2023-09-19T03:51:26;1.40;;;1.30;;
61413;SDS011;47279;52.426;10.488;2023-09-19T03:53:52;1.48;;;1.30;;
61413;SDS011;47279;52.426;10.488;2023-09-19T03:56:18;1.48;;;1.38;;
61413;SDS011;47279;52.426;10.488;2023-09-19T03:58:44;1.63;;;1.50;;
61413;SDS011;47279;52.426;10.488;2023-09-19T04:01:10;1.65;;;1.40;;
61413;SDS011;47279;52.426;10.488;2023-09-19T04:03:38;1.40;;;1.30;;
61413;SDS011;47279;52.426;10.488;2023-09-19T04:06:16;1.50;;;1.40;;
61413;SDS011;47279;52.426;10.488;2023-09-19T04:08:42;1.40;;;1.30;;
61413;SDS011;47279;52.426;10.488;2023-09-19T04:11:09;1.13;;;1.10;;
61413;SDS011;47279;52.426;10.488;2023-09-19T04:13:35;1.50;;;1.35;;
61413;SDS011;47279;52.426;10.488;2023-09-19T04:16:01;1.42;;;1.25;;
61413;SDS011;47279;52.426;10.488;2023-09-19T04:18:29;1.38;;;1.27;;
61413;SDS011;47279;52.426;10.488;2023-09-19T04:20:58;1.45;;;1.35;;
61413;SDS011;47279;52.426;10.488;2023-09-19T04:23:26;1.30;;;1.20;;
61413;SDS011;47279;52.426;10.488;2023-09-19T04:25:53;1.40;;;1.30;;
61413;SDS011;47279;52.426;10.488;2023-09-19T04:28:19;1.88;;;1.10;;
61413;SDS011;47279;52.426;10.488;2023-09-19T04:30:45;1.25;;;1.10;;
61413;SDS011;47279;52.426;10.488;2023-09-19T04:33:11;1.38;;;1.27;;
61413;SDS011;47279;52.426;10.488;2023-09-19T04:35:39;1.60;;;1.50;;
61413;SDS011;47279;52.426;10.488;2023-09-19T04:38:07;1.60;;;1.50;;
61413;SDS011;47279;52.426;10.488;2023-09-19T04:40:33;1.50;;;1.40;;
61413;SDS011;47279;52.426;10.488;2023-09-19T04:42:59;1.40;;;1.30;;
61413;SDS011;47279;52.426;10.488;2023-09-19T04:45:25;1.58;;;1.48;;
61413;SDS011;47279;52.426;10.488;2023-09-19T04:47:52;1.50;;;1.40;;
61413;SDS011;47279;52.426;10.488;2023-09-19T04:50:18;1.40;;;1.30;;
61413;SDS011;47279;52.426;10.488;2023-09-19T04:52:44;1.70;;;1.60;;
61413;SDS011;47279;52.426;10.488;2023-09-19T04:55:13;1.30;;;1.20;;
61413;SDS011;47279;52.426;10.488;2023-09-19T04:57:46;1.65;;;1.20;;
61413;SDS011;47279;52.426;10.488;2023-09-19T05:00:13;2.17;;;1.35;;
61413;SDS011;47279;52.426;10.488;2023-09-19T05:02:40;2.00;;;1.38;;
61413;SDS011;47279;52.426;10.488;2023-09-19T05:05:07;1.48;;;1.35;;
61413;SDS011;47279;52.426;10.488;2023-09-19T05:07:33;1.58;;;1.30;;
61413;SDS011;47279;52.426;10.488;2023-09-19T05:09:59;1.80;;;1.63;;
61413;SDS011;47279;52.426;10.488;2023-09-19T05:12:26;3.97;;;1.63;;
61413;SDS011;47279;52.426;10.488;2023-09-19T05:14:52;1.92;;;1.50;;
61413;SDS011;47279;52.426;10.488;2023-09-19T05:17:18;3.90;;;1.50;;
61413;SDS011;47279;52.426;10.488;2023-09-19T05:19:44;2.42;;;1.50;;
61413;SDS011;47279;52.426;10.488;2023-09-19T05:22:11;2.00;;;1.60;;
61413;SDS011;47279;52.426;10.488;2023-09-19T05:24:37;1.50;;;1.40;;
61413;SDS011;47279;52.426;10.488;2023-09-19T05:27:04;3.03;;;1.88;;
61413;SDS011;47279;52.426;10.488;2023-09-19T05:29:32;2.13;;;1.88;;
61413;SDS011;47279;52.426;10.488;2023-09-19T05:31:58;2.22;;;1.60;;
61413;SDS011;47279;52.426;10.488;2023-09-19T05:34:24;1.60;;;1.50;;
61413;SDS011;47279;52.426;10.488;2023-09-19T05:36:55;2.55;;;1.75;;
61413;SDS011;47279;52.426;10.488;2023-09-19T05:39:21;2.47;;;1.58;;
61413;SDS011;47279;52.426;10.488;2023-09-19T05:41:47;2.40;;;1.70;;
61413;SDS011;47279;52.426;10.488;2023-09-19T05:44:13;2.20;;;1.65;;
61413;SDS011;47279;52.426;10.488;2023-09-19T05:46:39;2.30;;;1.70;;
61413;SDS011;47279;52.426;10.488;2023-09-19T05:49:05;2.13;;;1.88;;
61413;SDS011;47279;52.426;10.488;2023-09-19T05:51:31;1.70;;;1.58;;
61413;SDS011;47279;52.426;10.488;2023-09-19T05:53:57;1.67;;;1.50;;
61413;SDS011;47279;52.426;10.488;2023-09-19T05:56:23;1.92;;;1.60;;
61413;SDS011;47279;52.426;10.488;2023-09-19T05:58:49;2.20;;;1.60;;
61413;SDS011;47279;52.426;10.488;2023-09-19T06:01:17;2.17;;;1.60;;
61413;SDS011;47279;52.426;10.488;2023-09-19T06:03:43;1.92;;;1.65;;
61413;SDS011;47279;52.426;10.488;2023-09-19T06:06:09;2.30;;;1.70;;
61413;SDS011;47279;52.426;10.488;2023-09-19T06:08:35;2.08;;;1.60;;
61413;SDS011;47279;52.426;10.488;2023-09-19T06:11:01;2.42;;;1.80;;
61413;SDS011;47279;52.426;10.488;2023-09-19T06:13:30;2.97;;;1.70;;
61413;SDS011;47279;52.426;10.488;2023-09-19T06:15:58;2.28;;;1.70;;
61413;SDS011;47279;52.426;10.488;2023-09-19T06:18:28;2.03;;;1.80;;
61413;SDS011;47279;52.426;10.488;2023-09-19T06:20:54;2.28;;;1.70;;
61413;SDS011;47279;52.426;10.488;2023-09-19T06:23:20;1.92;;;1.73;;
61413;SDS011;47279;52.426;10.488;2023-09-19T06:25:47;1.88;;;1.55;;
61413;SDS011;47279;52.426;10.488;2023-09-19T06:28:13;2.63;;;1.80;;
61413;SDS011;47279;52.426;10.488;2023-09-19T06:30:41;1.75;;;1.60;;
61413;SDS011;47279;52.426;10.488;2023-09-19T06:33:09;2.55;;;1.80;;
61413;SDS011;47279;52.426;10.488;2023-09-19T06:35:36;2.28;;;1.85;;
61413;SDS011;47279;52.426;10.488;2023-09-19T06:38:02;2.83;;;2.00;;
61413;SDS011;47279;52.426;10.488;2023-09-19T06:40:29;2.05;;;1.58;;
61413;SDS011;47279;52.426;10.488;2023-09-19T06:42:55;1.60;;;1.50;;
61413;SDS011;47279;52.426;10.488;2023-09-19T06:45:22;1.80;;;1.70;;
61413;SDS011;47279;52.426;10.488;2023-09-19T06:47:51;2.72;;;1.60;;
61413;SDS011;47279;52.426;10.488;2023-09-19T06:50:18;1.88;;;1.67;;
61413;SDS011;47279;52.426;10.488;2023-09-19T06:52:47;1.67;;;1.58;;
61413;SDS011;47279;52.426;10.488;2023-09-19T06:55:15;2.15;;;1.70;;
61413;SDS011;47279;52.426;10.488;2023-09-19T06:57:41;1.85;;;1.75;;
61413;SDS011;47279;52.426;10.488;2023-09-19T07:00:08;2.22;;;2.03;;
61413;SDS011;47279;52.426;10.488;2023-09-19T07:02:40;1.70;;;1.60;;
61413;SDS011;47279;52.426;10.488;2023-09-19T07:05:06;2.00;;;1.80;;
61413;SDS011;47279;52.426;10.488;2023-09-19T07:07:32;1.92;;;1.73;;
61413;SDS011;47279;52.426;10.488;2023-09-19T07:10:00;2.03;;;1.70;;
61413;SDS011;47279;52.426;10.488;2023-09-19T07:12:26;2.28;;;1.75;;
61413;SDS011;47279;52.426;10.488;2023-09-19T07:14:51;2.50;;;1.73;;
61413;SDS011;47279;52.426;10.488;2023-09-19T07:17:18;1.73;;;1.63;;
61413;SDS011;47279;52.426;10.488;2023-09-19T07:19:44;2.00;;;1.75;;
61413;SDS011;47279;52.426;10.488;2023-09-19T07:22:10;1.80;;;1.70;;
61413;SDS011;47279;52.426;10.488;2023-09-19T07:24:36;1.90;;;1.70;;
61413;SDS011;47279;52.426;10.488;2023-09-19T07:27:03;1.75;;;1.65;;
61413;SDS011;47279;52.426;10.488;2023-09-19T07:29:30;2.47;;;1.95;;
61413;SDS011;47279;52.426;10.488;2023-09-19T07:31:56;1.85;;;1.70;;
61413;SDS011;47279;52.426;10.488;2023-09-19T07:34:22;2.05;;;1.85;;
61413;SDS011;47279;52.426;10.488;2023-09-19T07:36:49;1.95;;;1.65;;
61413;SDS011;47279;52.426;10.488;2023-09-19T07:39:15;1.85;;;1.70;;
61413;SDS011;47279;52.426;10.488;2023-09-19T07:41:41;2.15;;;1.95;;
61413;SDS011;47279;52.426;10.488;2023-09-19T07:44:07;2.28;;;1.90;;
61413;SDS011;47279;52.426;10.488;2023-09-19T07:46:35;2.22;;;2.03;;
61413;SDS011;47279;52.426;10.488;2023-09-19T07:49:01;2.30;;;1.73;;
61413;SDS011;47279;52.426;10.488;2023-09-19T07:51:27;2.50;;;2.22;;
61413;SDS011;47279;52.426;10.488;2023-09-19T07:53:54;2.08;;;1.70;;
61413;SDS011;47279;52.426;10.488;2023-09-19T07:56:20;1.98;;;1.60;;
61413;SDS011;47279;52.426;10.488;2023-09-19T07:58:47;2.13;;;1.95;;
61413;SDS011;47279;52.426;10.488;2023-09-19T08:01:13;2.22;;;1.90;;
61413;SDS011;47279;52.426;10.488;2023-09-19T08:03:41;1.90;;;1.60;;
61413;SDS011;47279;52.426;10.488;2023-09-19T08:06:08;2.40;;;1.88;;
61413;SDS011;47279;52.426;10.488;2023-09-19T08:08:34;2.35;;;1.73;;
61413;SDS011;47279;52.426;10.488;2023-09-19T08:11:03;1.98;;;1.80;;
61413;SDS011;47279;52.426;10.488;2023-09-19T08:13:38;2.78;;;1.90;;
61413;SDS011;47279;52.426;10.488;2023-09-19T08:16:08;2.55;;;1.85;;
61413;SDS011;47279;52.426;10.488;2023-09-19T08:18:34;4.10;;;2.00;;
61413;SDS011;47279;52.426;10.488;2023-09-19T08:21:00;2.67;;;1.70;;
61413;SDS011;47279;52.426;10.488;2023-09-19T08:23:26;1.88;;;1.77;;
61413;SDS011;47279;52.426;10.488;2023-09-19T08:25:56;1.70;;;1.60;;
61413;SDS011;47279;52.426;10.488;2023-09-19T08:28:23;2.57;;;2.37;;
61413;SDS011;47279;52.426;10.488;2023-09-19T08:30:49;2.80;;;2.00;;
61413;SDS011;47279;52.426;10.488;2023-09-19T08:33:16;1.95;;;1.75;;
61413;SDS011;47279;52.426;10.488;2023-09-19T08:35:42;1.92;;;1.83;;
61413;SDS011;47279;52.426;10.488;2023-09-19T08:38:09;2.40;;;1.90;;
61413;SDS011;47279;52.426;10.488;2023-09-19T08:40:39;2.20;;;2.00;;
61413;SDS011;47279;52.426;10.488;2023-09-19T08:43:07;3.58;;;1.92;;
61413;SDS011;47279;52.426;10.488;2023-09-19T08:45:33;1.80;;;1.70;;
61413;SDS011;47279;52.426;10.488;2023-09-19T08:48:06;1.73;;;1.63;;
61413;SDS011;47279;52.426;10.488;2023-09-19T08:50:39;2.05;;;1.85;;
61413;SDS011;47279;52.426;10.488;2023-09-19T08:53:10;2.20;;;2.00;;
61413;SDS011;47279;52.426;10.488;2023-09-19T08:55:37;2.08;;;1.88;;
61413;SDS011;47279;52.426;10.488;2023-09-19T08:58:06;2.50;;;1.92;;
61413;SDS011;47279;52.426;10.488;2023-09-19T09:00:34;1.95;;;1.80;;
61413;SDS011;47279;52.426;10.488;2023-09-19T09:03:01;1.90;;;1.63;;
61413;SDS011;47279;52.426;10.488;2023-09-19T09:05:29;1.80;;;1.58;;
61413;SDS011;47279;52.426;10.488;2023-09-19T09:07:55;1.80;;;1.70;;
61413;SDS011;47279;52.426;10.488;2023-09-19T09:10:22;2.03;;;1.70;;
61413;SDS011;47279;52.426;10.488;2023-09-19T09:12:50;1.85;;;1.70;;
61413;SDS011;47279;52.426;10.488;2023-09-19T09:15:17;1.60;;;1.50;;
61413;SDS011;47279;52.426;10.488;2023-09-19T09:17:46;2.00;;;1.80;;
61413;SDS011;47279;52.426;10.488;2023-09-19T09:20:13;2.03;;;1.85;;
61413;SDS011;47279;52.426;10.488;2023-09-19T09:22:50;2.00;;;1.80;;
61413;SDS011;47279;52.426;10.488;2023-09-19T09:25:15;2.90;;;1.90;;
61413;SDS011;47279;52.426;10.488;2023-09-19T09:27:43;2.92;;;1.83;;
61413;SDS011;47279;52.426;10.488;2023-09-19T09:30:09;2.08;;;1.88;;
61413;SDS011;47279;52.426;10.488;2023-09-19T09:32:38;3.35;;;1.58;;
61413;SDS011;47279;52.426;10.488;2023-09-19T09:35:07;2.35;;;2.15;;
61413;SDS011;47279;52.426;10.488;2023-09-19T09:37:39;3.00;;;1.85;;
61413;SDS011;47279;52.426;10.488;2023-09-19T09:40:08;4.18;;;1.90;;
61413;SDS011;47279;52.426;10.488;2023-09-19T09:42:40;2.38;;;1.98;;
61413;SDS011;47279;52.426;10.488;2023-09-19T09:45:12;1.90;;;1.70;;
61413;SDS011;47279;52.426;10.488;2023-09-19T09:47:41;2.10;;;1.73;;
61413;SDS011;47279;52.426;10.488;2023-09-19T09:50:14;1.98;;;1.63;;
61413;SDS011;47279;52.426;10.488;2023-09-19T09:52:54;3.55;;;2.10;;
61413;SDS011;47279;52.426;10.488;2023-09-19T09:55:25;2.20;;;1.95;;
61413;SDS011;47279;52.426;10.488;2023-09-19T10:00:54;2.22;;;2.03;;
61413;SDS011;47279;52.426;10.488;2023-09-19T10:03:40;2.95;;;2.00;;
61413;SDS011;47279;52.426;10.488;2023-09-19T10:06:09;2.40;;;2.00;;
61413;SDS011;47279;52.426;10.488;2023-09-19T10:09:09;2.15;;;1.95;;
61413;SDS011;47279;52.426;10.488;2023-09-19T10:11:36;2.65;;;2.00;;
61413;SDS011;47279;52.426;10.488;2023-09-19T10:14:04;2.70;;;2.10;;
61413;SDS011;47279;52.426;10.488;2023-09-19T10:16:31;2.50;;;2.05;;
61413;SDS011;47279;52.426;10.488;2023-09-19T10:18:58;2.95;;;1.90;;
61413;SDS011;47279;52.426;10.488;2023-09-19T10:21:28;3.10;;;2.20;;
61413;SDS011;47279;52.426;10.488;2023-09-19T10:23:55;2.38;;;1.88;;
61413;SDS011;47279;52.426;10.488;2023-09-19T10:26:25;2.15;;;1.88;;
61413;SDS011;47279;52.426;10.488;2023-09-19T10:28:55;2.72;;;1.90;;
61413;SDS011;47279;52.426;10.488;2023-09-19T10:31:22;3.70;;;1.90;;
61413;SDS011;47279;52.426;10.488;2023-09-19T10:33:50;2.83;;;2.00;;
61413;SDS011;47279;52.426;10.488;2023-09-19T10:36:17;2.60;;;1.85;;
61413;SDS011;47279;52.426;10.488;2023-09-19T10:38:44;3.40;;;2.00;;
61413;SDS011;47279;52.426;10.488;2023-09-19T10:41:11;2.50;;;1.83;;
61413;SDS011;47279;52.426;10.488;2023-09-19T10:43:39;2.20;;;1.73;;
61413;SDS011;47279;52.426;10.488;2023-09-19T10:46:09;3.15;;;2.00;;
61413;SDS011;47279;52.426;10.488;2023-09-19T10:48:38;2.95;;;1.67;;
61413;SDS011;47279;52.426;10.488;2023-09-19T10:51:15;2.03;;;1.75;;
61413;SDS011;47279;52.426;10.488;2023-09-19T10:53:49;2.60;;;1.80;;
61413;SDS011;47279;52.426;10.488;2023-09-19T10:56:18;3.35;;;1.70;;
61413;SDS011;47279;52.426;10.488;2023-09-19T10:58:45;3.00;;;1.85;;
61413;SDS011;47279;52.426;10.488;2023-09-19T11:01:11;3.63;;;1.85;;
61413;SDS011;47279;52.426;10.488;2023-09-19T11:03:37;2.63;;;1.77;;
61413;SDS011;47279;52.426;10.488;2023-09-19T11:06:12;2.15;;;1.80;;
61413;SDS011;47279;52.426;10.488;2023-09-19T11:11:47;2.38;;;2.00;;
61413;SDS011;47279;52.426;10.488;2023-09-19T11:22:18;1.55;;;1.42;;
61413;SDS011;47279;52.426;10.488;2023-09-19T11:24:47;2.63;;;1.80;;
61413;SDS011;47279;52.426;10.488;2023-09-19T11:27:16;3.30;;;2.10;;
61413;SDS011;47279;52.426;10.488;2023-09-19T11:29:43;2.53;;;1.75;;
61413;SDS011;47279;52.426;10.488;2023-09-19T11:32:09;2.70;;;1.63;;
61413;SDS011;47279;52.426;10.488;2023-09-19T11:39:38;2.28;;;1.83;;
61413;SDS011;47279;52.426;10.488;2023-09-19T11:42:50;2.30;;;1.83;;
61413;SDS011;47279;52.426;10.488;2023-09-19T11:44:52;2.53;;;2.00;;
61413;SDS011;47279;52.426;10.488;2023-09-19T11:47:20;2.78;;;1.90;;
61413;SDS011;47279;52.426;10.488;2023-09-19T11:49:49;2.30;;;1.73;;
61413;SDS011;47279;52.426;10.488;2023-09-19T11:52:21;2.75;;;1.60;;
61413;SDS011;47279;52.426;10.488;2023-09-19T11:54:54;2.28;;;1.73;;
61413;SDS011;47279;52.426;10.488;2023-09-19T11:57:20;2.10;;;1.83;;
61413;SDS011;47279;52.426;10.488;2023-09-19T11:59:46;1.88;;;1.75;;
61413;SDS011;47279;52.426;10.488;2023-09-19T12:02:13;2.28;;;1.60;;
61413;SDS011;47279;52.426;10.488;2023-09-19T12:04:41;2.13;;;1.83;;
61413;SDS011;47279;52.426;10.488;2023-09-19T12:07:09;2.00;;;1.77;;
61413;SDS011;47279;52.426;10.488;2023-09-19T12:12:25;1.85;;;1.60;;
61413;SDS011;47279;52.426;10.488;2023-09-19T12:14:58;2.22;;;1.63;;
61413;SDS011;47279;52.426;10.488;2023-09-19T12:17:37;1.85;;;1.60;;
61413;SDS011;47279;52.426;10.488;2023-09-19T12:20:04;2.78;;;1.77;;
61413;SDS011;47279;52.426;10.488;2023-09-19T12:22:43;2.65;;;2.20;;
61413;SDS011;47279;52.426;10.488;2023-09-19T12:25:09;3.20;;;1.77;;
61413;SDS011;47279;52.426;10.488;2023-09-19T12:27:47;2.47;;;1.77;;
61413;SDS011;47279;52.426;10.488;2023-09-19T12:30:14;2.22;;;1.83;;
61413;SDS011;47279;52.426;10.488;2023-09-19T12:32:43;1.95;;;1.58;;
61413;SDS011;47279;52.426;10.488;2023-09-19T12:35:09;2.63;;;1.60;;
61413;SDS011;47279;52.426;10.488;2023-09-19T12:37:45;3.42;;;1.75;;
61413;SDS011;47279;52.426;10.488;2023-09-19T12:40:18;2.75;;;1.80;;
61413;SDS011;47279;52.426;10.488;2023-09-19T12:42:52;2.25;;;1.60;;
61413;SDS011;47279;52.426;10.488;2023-09-19T12:45:20;2.17;;;1.60;;
61413;SDS011;47279;52.426;10.488;2023-09-19T12:50:33;2.60;;;1.90;;
61413;SDS011;47279;52.426;10.488;2023-09-19T12:52:59;1.48;;;1.38;;
61413;SDS011;47279;52.426;10.488;2023-09-19T12:55:26;2.53;;;1.80;;
61413;SDS011;47279;52.426;10.488;2023-09-19T13:00:21;1.77;;;1.65;;
61413;SDS011;47279;52.426;10.488;2023-09-19T13:08:28;2.72;;;1.60;;
61413;SDS011;47279;52.426;10.488;2023-09-19T13:11:05;2.75;;;1.75;;
61413;SDS011;47279;52.426;10.488;2023-09-19T13:13:34;1.70;;;1.48;;
61413;SDS011;47279;52.426;10.488;2023-09-19T13:16:01;2.40;;;2.08;;
61413;SDS011;47279;52.426;10.488;2023-09-19T13:18:28;2.28;;;1.60;;
61413;SDS011;47279;52.426;10.488;2023-09-19T13:21:10;1.92;;;1.55;;
61413;SDS011;47279;52.426;10.488;2023-09-19T13:23:40;1.85;;;1.60;;
61413;SDS011;47279;52.426;10.488;2023-09-19T13:26:07;2.05;;;1.83;;
61413;SDS011;47279;52.426;10.488;2023-09-19T13:28:33;2.63;;;1.80;;
61413;SDS011;47279;52.426;10.488;2023-09-19T13:30:59;2.63;;;1.65;;
61413;SDS011;47279;52.426;10.488;2023-09-19T13:33:25;2.47;;;1.83;;
61413;SDS011;47279;52.426;10.488;2023-09-19T13:35:51;2.15;;;1.80;;
61413;SDS011;47279;52.426;10.488;2023-09-19T13:38:18;2.45;;;1.70;;
61413;SDS011;47279;52.426;10.488;2023-09-19T13:40:47;2.15;;;1.73;;
61413;SDS011;47279;52.426;10.488;2023-09-19T13:43:12;1.77;;;1.50;;
61413;SDS011;47279;52.426;10.488;2023-09-19T13:45:39;2.63;;;1.80;;
61413;SDS011;47279;52.426;10.488;2023-09-19T13:48:07;2.35;;;1.50;;
61413;SDS011;47279;52.426;10.488;2023-09-19T13:50:36;2.33;;;1.80;;
61413;SDS011;47279;52.426;10.488;2023-09-19T13:53:06;2.05;;;1.83;;
61413;SDS011;47279;52.426;10.488;2023-09-19T13:55:32;2.13;;;1.73;;
61413;SDS011;47279;52.426;10.488;2023-09-19T13:57:58;1.67;;;1.58;;
61413;SDS011;47279;52.426;10.488;2023-09-19T14:00:25;2.25;;;1.90;;
61413;SDS011;47279;52.426;10.488;2023-09-19T14:02:52;2.10;;;1.80;;
61413;SDS011;47279;52.426;10.488;2023-09-19T14:05:18;2.17;;;1.90;;
61413;SDS011;47279;52.426;10.488;2023-09-19T14:07:45;2.20;;;1.70;;
61413;SDS011;47279;52.426;10.488;2023-09-19T14:10:11;2.53;;;1.60;;
61413;SDS011;47279;52.426;10.488;2023-09-19T14:12:38;2.95;;;2.00;;
61413;SDS011;47279;52.426;10.488;2023-09-19T14:15:06;2.40;;;1.77;;
61413;SDS011;47279;52.426;10.488;2023-09-19T14:17:32;2.17;;;1.63;;
61413;SDS011;47279;52.426;10.488;2023-09-19T14:19:58;2.20;;;2.00;;
61413;SDS011;47279;52.426;10.488;2023-09-19T14:22:24;2.40;;;1.60;;
61413;SDS011;47279;52.426;10.488;2023-09-19T14:24:50;2.28;;;1.60;;
61413;SDS011;47279;52.426;10.488;2023-09-19T14:27:16;2.53;;;1.60;;
61413;SDS011;47279;52.426;10.488;2023-09-19T14:29:42;2.53;;;2.00;;
61413;SDS011;47279;52.426;10.488;2023-09-19T14:32:08;2.85;;;2.00;;
61413;SDS011;47279;52.426;10.488;2023-09-19T14:34:35;3.10;;;2.00;;
61413;SDS011;47279;52.426;10.488;2023-09-19T14:37:06;2.33;;;1.80;;
61413;SDS011;47279;52.426;10.488;2023-09-19T14:39:32;2.10;;;1.90;;
61413;SDS011;47279;52.426;10.488;2023-09-19T14:41:58;2.00;;;1.80;;
61413;SDS011;47279;52.426;10.488;2023-09-19T14:44:24;2.00;;;1.80;;
61413;SDS011;47279;52.426;10.488;2023-09-19T14:46:50;2.15;;;1.83;;
61413;SDS011;47279;52.426;10.488;2023-09-19T14:49:16;2.58;;;2.15;;
61413;SDS011;47279;52.426;10.488;2023-09-19T14:51:42;2.70;;;2.00;;
61413;SDS011;47279;52.426;10.488;2023-09-19T14:54:13;3.28;;;2.33;;
61413;SDS011;47279;52.426;10.488;2023-09-19T14:56:41;2.22;;;2.03;;
61413;SDS011;47279;52.426;10.488;2023-09-19T14:59:07;2.45;;;1.92;;
61413;SDS011;47279;52.426;10.488;2023-09-19T15:01:35;2.80;;;1.90;;
61413;SDS011;47279;52.426;10.488;2023-09-19T15:04:01;3.47;;;1.88;;
61413;SDS011;47279;52.426;10.488;2023-09-19T15:06:27;2.72;;;2.10;;
61413;SDS011;47279;52.426;10.488;2023-09-19T15:08:53;3.22;;;2.67;;
61413;SDS011;47279;52.426;10.488;2023-09-19T15:11:19;2.63;;;1.92;;
61413;SDS011;47279;52.426;10.488;2023-09-19T15:13:46;2.95;;;2.08;;
61413;SDS011;47279;52.426;10.488;2023-09-19T15:16:13;2.60;;;2.10;;
61413;SDS011;47279;52.426;10.488;2023-09-19T15:18:39;3.50;;;2.67;;
61413;SDS011;47279;52.426;10.488;2023-09-19T15:21:06;5.28;;;3.50;;
61413;SDS011;47279;52.426;10.488;2023-09-19T15:23:33;7.40;;;4.82;;